Time;durP1;ratioP1;P1;durP2;ratioP2;P2;SDS_P1;SDS_P2;PMS_P1;PMS_P2;Temp;Humidity;BMP_temperature;BMP_pressure;BME280_temperature;BME280_humidity;BME280_pressure;Samples;Min_cycle;Max_cycle;Signal;HPM_P1;HPM_P2
2021/01/17 00:02:23;;;;;;;25.92;9.63;;;5.90;87.10;;;;;;5016079;28;20063;-51
2021/01/17 00:04:49;;;;;;;30.08;10.80;;;5.90;86.30;;;;;;5015336;28;20029;-50
2021/01/17 00:07:15;;;;;;;37.22;12.13;;;5.90;86.30;;;;;;5034589;28;20029;-51
2021/01/17 00:09:40;;;;;;;30.80;11.43;;;5.90;86.30;;;;;;5034726;28;20025;-51
2021/01/17 00:12:08;;;;;;;32.92;12.13;;;5.90;86.20;;;;;;5027719;28;20447;-50
2021/01/17 00:14:35;;;;;;;31.20;10.85;;;5.90;86.30;;;;;;5014815;28;20125;-51
2021/01/17 00:17:02;;;;;;;33.38;13.07;;;5.90;86.30;;;;;;5014608;28;20359;-51
2021/01/17 00:19:28;;;;;;;28.08;10.93;;;5.90;86.30;;;;;;5014774;28;20344;-50
2021/01/17 00:21:53;;;;;;;25.27;9.25;;;5.90;86.30;;;;;;5027602;28;20463;-51
2021/01/17 00:24:19;;;;;;;34.50;12.27;;;5.90;86.20;;;;;;5033625;28;20358;-51
2021/01/17 00:26:45;;;;;;;28.10;11.15;;;5.90;86.30;;;;;;5034526;28;20450;-50
2021/01/17 00:29:10;;;;;;;28.25;9.60;;;5.90;86.30;;;;;;5034198;28;20021;-51
2021/01/17 00:31:36;;;;;;;24.85;10.75;;;5.90;86.20;;;;;;5034260;28;20036;-51
2021/01/17 00:34:03;;;;;;;28.02;11.43;;;5.90;86.20;;;;;;5032285;28;20045;-50
2021/01/17 00:36:35;;;;;;;30.33;12.38;;;5.90;86.20;;;;;;5034206;28;20040;-51
2021/01/17 00:39:01;;;;;;;26.42;10.02;;;5.90;87.00;;;;;;5033933;28;20467;-51
2021/01/17 00:41:30;;;;;;;28.23;11.57;;;5.90;86.20;;;;;;5034124;28;20032;-51
2021/01/17 00:43:56;;;;;;;24.83;12.73;;;5.90;86.20;;;;;;5032506;28;20026;-50
2021/01/17 00:46:22;;;;;;;21.83;9.23;;;6.00;87.10;;;;;;5033836;28;20033;-51
2021/01/17 00:48:48;;;;;;;24.85;9.70;;;6.00;86.20;;;;;;5026728;28;20049;-51
2021/01/17 00:51:13;;;;;;;28.80;10.48;;;6.00;86.20;;;;;;5014133;28;20080;-50
2021/01/17 00:53:39;;;;;;;16.92;7.93;;;5.90;86.10;;;;;;5013905;28;20025;-50
2021/01/17 00:56:04;;;;;;;25.48;11.27;;;6.00;86.20;;;;;;5015366;28;20037;-50
2021/01/17 00:58:30;;;;;;;21.65;9.40;;;5.90;86.20;;;;;;5013984;28;20105;-51
2021/01/17 01:00:56;;;;;;;27.60;10.65;;;5.90;86.20;;;;;;5013678;28;20026;-51
2021/01/17 01:03:21;;;;;;;23.23;9.18;;;5.90;86.20;;;;;;5013943;28;20351;-51
2021/01/17 01:05:47;;;;;;;25.27;9.48;;;6.00;86.20;;;;;;5023245;28;20068;-51
2021/01/17 01:08:13;;;;;;;26.10;9.88;;;5.90;86.20;;;;;;5025457;28;20451;-50
2021/01/17 01:10:38;;;;;;;27.10;10.57;;;6.00;86.30;;;;;;5013827;28;20217;-50
2021/01/17 01:13:04;;;;;;;25.85;11.00;;;5.90;86.20;;;;;;5013938;28;20336;-50
2021/01/17 01:15:29;;;;;;;24.60;10.10;;;5.90;86.20;;;;;;5014703;28;20042;-51
2021/01/17 01:17:55;;;;;;;32.42;11.43;;;6.00;86.20;;;;;;5013632;28;20030;-50
2021/01/17 01:20:21;;;;;;;26.35;9.30;;;5.90;86.20;;;;;;5013528;28;20025;-51
2021/01/17 01:22:46;;;;;;;24.00;9.80;;;5.90;86.20;;;;;;5013455;28;20022;-50
2021/01/17 01:25:12;;;;;;;23.58;10.48;;;5.90;86.30;;;;;;5020303;28;20051;-51
2021/01/17 01:27:38;;;;;;;25.75;10.38;;;6.00;86.30;;;;;;5033345;28;20067;-51
2021/01/17 01:30:06;;;;;;;29.23;11.25;;;6.00;86.30;;;;;;5032635;28;20120;-51
2021/01/17 01:32:31;;;;;;;31.80;10.85;;;6.00;86.20;;;;;;5033519;28;20029;-50
2021/01/17 01:34:57;;;;;;;28.98;11.40;;;6.00;86.20;;;;;;5031931;28;20110;-51
2021/01/17 01:37:23;;;;;;;29.88;10.52;;;6.00;86.20;;;;;;5032886;28;20045;-51
2021/01/17 01:39:49;;;;;;;23.02;9.93;;;6.00;87.00;;;;;;5032704;28;20573;-51
2021/01/17 01:42:14;;;;;;;24.65;10.23;;;6.00;86.20;;;;;;5032825;28;20025;-51
2021/01/17 01:44:40;;;;;;;30.98;10.43;;;6.00;86.30;;;;;;5013098;28;20439;-50
2021/01/17 01:47:20;;;;;;;26.20;11.00;;;6.00;86.20;;;;;;5014715;28;20108;-51
2021/01/17 01:49:46;;;;;;;31.10;12.13;;;6.00;86.20;;;;;;5013321;28;20032;-51
2021/01/17 01:52:13;;;;;;;24.85;11.70;;;5.90;86.20;;;;;;5013617;28;20026;-51
2021/01/17 01:54:40;;;;;;;30.60;12.52;;;6.00;86.30;;;;;;5013197;28;20038;-50
2021/01/17 01:57:06;;;;;;;27.73;11.43;;;6.00;86.30;;;;;;5014376;28;20084;-51
2021/01/17 01:59:32;;;;;;;31.95;11.75;;;6.00;86.20;;;;;;5019379;28;20402;-50
2021/01/17 02:02:04;;;;;;;28.45;11.20;;;6.00;86.20;;;;;;5038009;28;20083;-51
2021/01/17 02:04:30;;;;;;;30.27;11.00;;;6.00;86.20;;;;;;5033197;28;20026;-50
2021/01/17 02:07:31;;;;;;;24.80;11.20;;;6.00;86.30;;;;;;5015676;28;20029;-51
2021/01/17 02:09:57;;;;;;;28.40;10.95;;;6.00;86.20;;;;;;5013139;28;20030;-50
2021/01/17 02:12:30;;;;;;;32.65;12.45;;;6.00;86.20;;;;;;5013388;28;20025;-51
2021/01/17 02:15:23;;;;;;;34.35;11.77;;;6.00;86.20;;;;;;5013134;28;20034;-51
2021/01/17 02:17:50;;;;;;;26.48;11.23;;;6.00;86.20;;;;;;5014297;28;20274;-51
2021/01/17 02:20:23;;;;;;;30.50;11.85;;;6.00;86.20;;;;;;5023488;28;20072;-51
2021/01/17 02:23:01;;;;;;;21.77;9.45;;;6.00;86.20;;;;;;5032786;28;20056;-50
2021/01/17 02:25:30;;;;;;;25.00;11.43;;;6.00;86.20;;;;;;5032973;28;20088;-51
2021/01/17 02:27:58;;;;;;;27.27;11.23;;;6.00;86.20;;;;;;5032858;28;20640;-51
2021/01/17 02:30:27;;;;;;;30.70;12.18;;;6.00;86.20;;;;;;5030849;28;20038;-50
2021/01/17 02:33:06;;;;;;;28.38;11.00;;;6.00;86.20;;;;;;5032596;28;20029;-51
2021/01/17 02:35:33;;;;;;;34.37;11.20;;;6.00;86.20;;;;;;5034082;28;20065;-51
2021/01/17 02:38:08;;;;;;;27.88;10.90;;;6.00;86.20;;;;;;5035003;28;20052;-51
2021/01/17 02:40:56;;;;;;;34.55;13.48;;;6.00;86.10;;;;;;5017395;28;20041;-50
2021/01/17 02:43:24;;;;;;;32.88;11.70;;;6.00;86.20;;;;;;5016225;28;20133;-51
2021/01/17 02:45:50;;;;;;;28.83;11.75;;;6.00;86.20;;;;;;5016744;28;20040;-50
2021/01/17 02:48:16;;;;;;;30.92;12.95;;;6.00;86.20;;;;;;5016860;28;20105;-51
2021/01/17 02:50:42;;;;;;;28.77;11.75;;;6.00;86.10;;;;;;5016826;28;20053;-50
2021/01/17 02:53:20;;;;;;;22.10;9.98;;;6.00;86.20;;;;;;5016457;28;20040;-51
2021/01/17 02:55:50;;;;;;;33.60;13.88;;;6.00;86.20;;;;;;5016225;28;20091;-51
2021/01/17 02:58:16;;;;;;;29.27;11.40;;;6.00;86.20;;;;;;5016201;28;20362;-50
2021/01/17 03:00:45;;;;;;;31.88;11.43;;;6.00;86.10;;;;;;5017056;28;20033;-50
2021/01/17 03:03:13;;;;;;;29.05;10.68;;;6.00;86.10;;;;;;5016281;28;20081;-51
2021/01/17 03:05:40;;;;;;;32.60;12.98;;;6.00;86.20;;;;;;5022990;28;20071;-51
2021/01/17 03:08:07;;;;;;;26.70;10.18;;;6.00;86.20;;;;;;5034850;28;20072;-51
2021/01/17 03:10:33;;;;;;;26.50;11.75;;;6.00;86.20;;;;;;5033927;28;20040;-50
2021/01/17 03:13:01;;;;;;;24.85;10.90;;;6.00;86.10;;;;;;5033934;28;20040;-50
2021/01/17 03:15:30;;;;;;;25.60;10.35;;;6.00;86.20;;;;;;5015801;28;20411;-51
2021/01/17 03:17:56;;;;;;;30.00;11.43;;;6.00;86.20;;;;;;5015903;28;20058;-50
2021/01/17 03:20:22;;;;;;;28.33;11.73;;;6.00;86.20;;;;;;5016586;28;20060;-51
2021/01/17 03:22:48;;;;;;;30.25;10.02;;;6.00;86.20;;;;;;5016327;28;20404;-51
2021/01/17 03:25:14;;;;;;;23.17;10.40;;;6.00;86.10;;;;;;5015863;28;20120;-50
2021/01/17 03:27:39;;;;;;;22.70;9.55;;;6.00;86.20;;;;;;5015772;28;20351;-50
2021/01/17 03:30:05;;;;;;;24.08;10.32;;;6.00;86.20;;;;;;5015505;28;20065;-50
2021/01/17 03:32:31;;;;;;;24.35;10.27;;;6.00;86.20;;;;;;5016833;28;20057;-50
2021/01/17 03:34:56;;;;;;;25.77;10.75;;;6.00;86.20;;;;;;5021748;28;20473;-51
2021/01/17 03:37:22;;;;;;;29.35;10.52;;;6.00;86.20;;;;;;5035126;28;20049;-51
2021/01/17 03:39:48;;;;;;;24.90;11.98;;;6.00;86.20;;;;;;5034656;28;20036;-50
2021/01/17 03:42:14;;;;;;;33.33;12.75;;;6.00;86.20;;;;;;5028881;28;20080;-51
2021/01/17 03:44:39;;;;;;;32.55;11.95;;;6.00;86.20;;;;;;5035091;28;20025;-51
2021/01/17 03:47:06;;;;;;;28.00;11.30;;;6.00;86.20;;;;;;5033336;28;20104;-51
2021/01/17 03:49:32;;;;;;;32.45;12.52;;;6.00;86.20;;;;;;5034869;28;20405;-51
2021/01/17 03:51:58;;;;;;;29.33;11.95;;;6.00;86.20;;;;;;5034796;28;20030;-51
2021/01/17 03:54:24;;;;;;;29.60;12.32;;;6.00;86.20;;;;;;5033372;28;20411;-50
2021/01/17 03:56:50;;;;;;;30.17;11.10;;;6.00;86.20;;;;;;5034840;28;20435;-50
2021/01/17 03:59:16;;;;;;;26.48;12.00;;;6.00;86.20;;;;;;5034697;28;20155;-50
2021/01/17 04:01:43;;;;;;;27.23;10.23;;;6.00;86.20;;;;;;5035063;28;20025;-51
2021/01/17 04:04:08;;;;;;;34.63;12.85;;;6.00;86.20;;;;;;5033378;28;20091;-51
2021/01/17 04:06:36;;;;;;;23.48;10.60;;;6.00;86.20;;;;;;5020272;28;20029;-50
2021/01/17 04:09:02;;;;;;;32.05;11.23;;;6.00;86.20;;;;;;5014830;28;20506;-51
2021/01/17 04:11:28;;;;;;;27.75;11.27;;;6.00;86.20;;;;;;5014821;28;20041;-50
2021/01/17 04:13:54;;;;;;;26.08;10.93;;;6.00;87.10;;;;;;5019667;28;20037;-51
2021/01/17 04:16:19;;;;;;;22.23;9.70;;;6.00;86.20;;;;;;5033932;28;20060;-50
2021/01/17 04:18:45;;;;;;;27.58;10.45;;;6.00;86.30;;;;;;5034431;28;20470;-51
2021/01/17 04:21:10;;;;;;;23.35;9.68;;;6.00;86.20;;;;;;5034520;28;20120;-51
2021/01/17 04:23:36;;;;;;;24.98;10.00;;;6.00;86.20;;;;;;5034856;28;20112;-51
2021/01/17 04:26:02;;;;;;;22.02;9.23;;;6.00;86.20;;;;;;5033033;28;20064;-50
2021/01/17 04:28:27;;;;;;;29.10;11.75;;;6.00;86.20;;;;;;5034420;28;20028;-51
2021/01/17 04:30:53;;;;;;;28.83;10.95;;;6.00;86.30;;;;;;5015844;28;20034;-51
2021/01/17 04:33:19;;;;;;;27.65;10.70;;;6.00;86.30;;;;;;5014342;28;20025;-51
2021/01/17 04:35:47;;;;;;;19.48;9.00;;;6.00;86.20;;;;;;5015518;28;20171;-51
2021/01/17 04:38:13;;;;;;;22.05;8.75;;;6.00;86.20;;;;;;5014379;28;20035;-51
2021/01/17 04:40:39;;;;;;;22.02;9.25;;;6.00;86.20;;;;;;5014020;28;20030;-51
2021/01/17 04:43:11;;;;;;;22.52;9.20;;;6.00;86.20;;;;;;5014196;28;20030;-51
2021/01/17 04:45:37;;;;;;;24.10;9.32;;;6.00;86.20;;;;;;5015332;28;20521;-51
2021/01/17 04:48:04;;;;;;;29.25;9.98;;;6.00;86.20;;;;;;5014042;28;20018;-51
2021/01/17 04:50:32;;;;;;;25.00;10.60;;;6.00;86.10;;;;;;5028488;28;20044;-51
2021/01/17 04:53:06;;;;;;;25.17;10.15;;;6.00;86.10;;;;;;5034028;28;20029;-51
2021/01/17 04:55:35;;;;;;;25.55;10.80;;;6.00;86.10;;;;;;5034065;28;20041;-51
2021/01/17 04:58:09;;;;;;;26.25;10.02;;;6.00;86.10;;;;;;5031222;28;20040;-51
2021/01/17 05:00:41;;;;;;;25.50;11.30;;;6.00;86.20;;;;;;5033426;28;20370;-51
2021/01/17 05:03:25;;;;;;;22.35;8.48;;;6.00;86.20;;;;;;5033882;28;20390;-51
2021/01/17 05:06:23;;;;;;;26.75;10.15;;;6.00;86.20;;;;;;5025037;28;20444;-51
2021/01/17 05:09:03;;;;;;;18.75;8.68;;;6.00;86.20;;;;;;5032771;28;20059;-51
2021/01/17 05:11:39;;;;;;;21.90;8.88;;;6.00;86.20;;;;;;5033630;28;20026;-51
2021/01/17 05:14:40;;;;;;;25.38;9.10;;;6.10;86.20;;;;;;5033719;28;20040;-51
2021/01/17 05:17:06;;;;;;;25.92;11.30;;;6.00;86.20;;;;;;5032681;28;20061;-51
2021/01/17 05:19:37;;;;;;;25.85;10.90;;;6.00;86.20;;;;;;5032689;28;20028;-50
2021/01/17 05:22:05;;;;;;;19.42;8.55;;;6.00;86.20;;;;;;5033734;28;20033;-51
2021/01/17 05:24:31;;;;;;;31.08;10.98;;;6.10;86.20;;;;;;5029309;28;20037;-51
2021/01/17 05:27:00;;;;;;;25.95;10.48;;;6.00;86.20;;;;;;5013582;28;20459;-51
2021/01/17 05:29:29;;;;;;;27.17;10.38;;;6.10;86.20;;;;;;5014531;28;20025;-51
2021/01/17 05:32:02;;;;;;;23.77;9.27;;;6.10;86.20;;;;;;5013543;28;20025;-52
2021/01/17 05:34:29;;;;;;;27.55;10.88;;;6.10;86.30;;;;;;5013727;28;20053;-51
2021/01/17 05:37:05;;;;;;;23.80;9.80;;;6.10;86.10;;;;;;5013606;28;20030;-51
2021/01/17 05:39:51;;;;;;;24.10;9.43;;;6.00;86.20;;;;;;5014183;28;20034;-51
2021/01/17 05:42:19;;;;;;;24.30;8.75;;;6.10;86.30;;;;;;5013215;28;20131;-51
2021/01/17 05:44:45;;;;;;;21.80;9.05;;;6.10;86.30;;;;;;5013509;28;20052;-51
2021/01/17 05:47:11;;;;;;;24.55;9.13;;;6.00;85.70;;;;;;5013478;28;20034;-51
2021/01/17 05:49:36;;;;;;;28.38;10.00;;;6.10;86.30;;;;;;5014380;28;20025;-51
2021/01/17 05:52:14;;;;;;;16.88;8.25;;;6.10;86.20;;;;;;5013407;28;20088;-51
2021/01/17 05:54:41;;;;;;;25.90;9.98;;;6.10;87.00;;;;;;5032182;28;20038;-51
2021/01/17 05:57:14;;;;;;;25.83;9.20;;;6.10;86.20;;;;;;5032948;28;20115;-51
2021/01/17 05:59:41;;;;;;;25.00;9.15;;;6.10;86.20;;;;;;5031021;28;20030;-51
2021/01/17 06:02:17;;;;;;;26.55;10.05;;;6.10;86.20;;;;;;5014331;28;20456;-51
2021/01/17 06:04:48;;;;;;;23.10;9.32;;;6.10;86.20;;;;;;5013360;28;20042;-51
2021/01/17 06:07:15;;;;;;;22.73;9.45;;;6.10;86.20;;;;;;5023510;28;20151;-51
2021/01/17 06:09:43;;;;;;;21.33;9.60;;;6.10;86.20;;;;;;5034034;28;20026;-51
2021/01/17 06:12:10;;;;;;;22.65;9.38;;;6.10;86.20;;;;;;5035132;28;20033;-51
2021/01/17 06:14:36;;;;;;;20.05;8.35;;;6.10;86.10;;;;;;5036946;28;20044;-51
2021/01/17 06:17:04;;;;;;;26.50;9.45;;;6.10;86.20;;;;;;5037074;28;20053;-51
2021/01/17 06:19:35;;;;;;;25.98;8.98;;;6.10;86.20;;;;;;5036474;28;20098;-51
2021/01/17 06:22:07;;;;;;;27.80;9.55;;;6.10;86.20;;;;;;5035404;28;20100;-51
2021/01/17 06:24:37;;;;;;;22.67;9.32;;;6.10;86.20;;;;;;5035648;28;20052;-51
2021/01/17 06:27:05;;;;;;;18.60;9.30;;;6.10;86.10;;;;;;5016894;28;20022;-51
2021/01/17 06:29:39;;;;;;;20.48;9.70;;;6.10;86.20;;;;;;5016698;28;20087;-51
2021/01/17 06:32:25;;;;;;;22.52;9.40;;;6.10;86.20;;;;;;5017863;28;20096;-51
2021/01/17 06:34:55;;;;;;;22.33;8.18;;;6.10;86.20;;;;;;5017027;28;20554;-51
2021/01/17 06:37:23;;;;;;;23.23;9.07;;;6.10;86.20;;;;;;5016735;28;20391;-51
2021/01/17 06:39:51;;;;;;;20.15;8.82;;;6.10;86.30;;;;;;5016574;28;20446;-51
2021/01/17 06:42:18;;;;;;;19.58;8.68;;;6.10;86.30;;;;;;5017787;28;20109;-51
2021/01/17 06:44:45;;;;;;;23.90;10.52;;;6.10;86.20;;;;;;5016215;28;20362;-51
2021/01/17 06:47:29;;;;;;;20.50;9.30;;;6.10;86.30;;;;;;5016718;28;20053;-51
2021/01/17 06:49:56;;;;;;;26.85;8.80;;;6.10;86.20;;;;;;5025274;28;20026;-51
2021/01/17 06:52:22;;;;;;;20.92;8.75;;;6.10;86.30;;;;;;5036330;28;20033;-51
2021/01/17 06:54:49;;;;;;;20.55;8.52;;;6.10;86.30;;;;;;5019760;28;20530;-51
2021/01/17 06:57:16;;;;;;;23.25;9.40;;;6.10;86.20;;;;;;5016251;28;20048;-51
2021/01/17 06:59:49;;;;;;;28.50;9.40;;;6.10;86.20;;;;;;5016130;28;20026;-51
2021/01/17 07:02:14;;;;;;;20.35;9.30;;;6.10;86.20;;;;;;5016363;28;20084;-51
2021/01/17 07:05:01;;;;;;;20.75;9.02;;;6.10;86.20;;;;;;5017513;28;20033;-51
2021/01/17 07:08:01;;;;;;;26.13;9.60;;;6.10;86.20;;;;;;5020865;28;20030;-51
2021/01/17 07:10:38;;;;;;;21.70;9.37;;;6.10;86.20;;;;;;5023251;28;20032;-51
2021/01/17 07:13:07;;;;;;;21.80;8.80;;;6.10;86.20;;;;;;5023094;28;20030;-50
2021/01/17 07:15:36;;;;;;;23.42;8.82;;;6.10;86.20;;;;;;5020193;28;20044;-51
2021/01/17 07:18:04;;;;;;;21.23;9.10;;;6.10;86.20;;;;;;5019721;28;20168;-50
2021/01/17 07:20:32;;;;;;;17.08;7.68;;;6.10;86.10;;;;;;5025831;28;20029;-51
2021/01/17 07:22:59;;;;;;;28.98;11.05;;;6.10;86.20;;;;;;5035425;28;20110;-51
2021/01/17 07:25:26;;;;;;;23.58;9.40;;;6.10;86.20;;;;;;5025195;28;20037;-51
2021/01/17 07:28:00;;;;;;;22.10;9.32;;;6.10;86.20;;;;;;5030674;28;20025;-51
2021/01/17 07:30:45;;;;;;;21.55;8.75;;;6.10;86.10;;;;;;5023632;28;20022;-51
2021/01/17 07:33:13;;;;;;;22.70;8.77;;;6.10;86.10;;;;;;5015685;28;20022;-51
2021/01/17 07:35:44;;;;;;;26.15;9.93;;;6.10;86.10;;;;;;5023218;28;20134;-51
2021/01/17 07:38:20;;;;;;;23.27;9.90;;;6.10;86.10;;;;;;5024720;28;20034;-51
2021/01/17 07:40:55;;;;;;;22.38;10.25;;;6.10;86.10;;;;;;5026236;28;20050;-51
2021/01/17 07:43:38;;;;;;;22.75;9.20;;;6.20;86.10;;;;;;5023558;28;20034;-51
2021/01/17 07:46:06;;;;;;;19.52;8.68;;;6.10;86.00;;;;;;5025835;28;20091;-51
2021/01/17 07:48:33;;;;;;;24.52;9.50;;;6.20;86.00;;;;;;5015926;28;20030;-51
2021/01/17 07:51:01;;;;;;;23.63;9.07;;;6.20;86.00;;;;;;5018393;28;20061;-51
2021/01/17 07:53:38;;;;;;;22.73;10.43;;;6.20;86.00;;;;;;5023915;28;20058;-51
2021/01/17 07:56:14;;;;;;;25.40;9.63;;;6.20;86.00;;;;;;5017792;28;20509;-51
2021/01/17 07:58:49;;;;;;;19.20;9.10;;;6.20;86.00;;;;;;5034098;28;20485;-51
2021/01/17 08:01:37;;;;;;;26.45;10.02;;;6.20;86.00;;;;;;5021534;28;20029;-51
2021/01/17 08:04:05;;;;;;;25.10;10.25;;;6.20;86.00;;;;;;5028243;28;20391;-51
2021/01/17 08:06:34;;;;;;;21.80;8.77;;;6.20;86.00;;;;;;5020020;28;20029;-51
2021/01/17 08:09:04;;;;;;;19.73;9.57;;;6.20;86.00;;;;;;5014834;28;20109;-51
2021/01/17 08:11:49;;;;;;;23.88;10.18;;;6.20;85.90;;;;;;5019585;28;20029;-51
2021/01/17 08:14:22;;;;;;;21.27;10.05;;;6.20;85.90;;;;;;5025643;28;20075;-51
2021/01/17 08:17:16;;;;;;;19.13;9.95;;;6.20;85.90;;;;;;5019642;28;20332;-51
2021/01/17 08:19:57;;;;;;;24.88;10.85;;;6.20;85.80;;;;;;5054468;28;20041;-51
2021/01/17 08:22:23;;;;;;;24.70;9.05;;;6.20;85.80;;;;;;5060431;28;20024;-51
2021/01/17 08:24:56;;;;;;;25.00;10.77;;;6.20;85.80;;;;;;5059394;28;20032;-51
2021/01/17 08:27:30;;;;;;;28.15;11.30;;;6.20;85.80;;;;;;5057214;28;20143;-51
2021/01/17 08:32:53;;;;;;;24.98;10.48;;;6.30;85.80;;;;;;5059860;28;20078;-51
2021/01/17 08:35:22;;;;;;;27.60;11.38;;;6.20;85.80;;;;;;5061233;28;20485;-51
2021/01/17 08:37:49;;;;;;;25.42;9.35;;;6.20;85.70;;;;;;5059550;28;20214;-51
2021/01/17 08:40:29;;;;;;;29.55;11.38;;;6.30;85.80;;;;;;5053549;28;20094;-51
2021/01/17 08:42:59;;;;;;;24.85;11.35;;;6.30;85.80;;;;;;5060380;28;20068;-51
2021/01/17 08:45:27;;;;;;;25.83;10.70;;;6.30;85.80;;;;;;5056914;28;20108;-51
2021/01/17 08:48:02;;;;;;;25.60;10.20;;;6.30;85.80;;;;;;5060225;28;20032;-51
2021/01/17 08:50:31;;;;;;;28.40;10.95;;;6.30;85.80;;;;;;5057700;28;20246;-51
2021/01/17 08:53:15;;;;;;;22.90;8.63;;;6.30;85.80;;;;;;5058245;28;20475;-51
2021/01/17 08:55:47;;;;;;;22.92;9.65;;;6.30;85.80;;;;;;5046463;28;20382;-51
2021/01/17 08:58:25;;;;;;;26.60;9.93;;;6.30;85.80;;;;;;5024407;28;20025;-51
2021/01/17 09:00:51;;;;;;;22.50;9.68;;;6.30;85.80;;;;;;5017937;28;20038;-51
2021/01/17 09:03:32;;;;;;;29.50;10.68;;;6.30;85.80;;;;;;5021247;28;20018;-51
2021/01/17 09:06:02;;;;;;;22.50;10.40;;;6.40;85.80;;;;;;5023816;28;20057;-51
2021/01/17 09:08:29;;;;;;;24.27;9.05;;;6.30;85.70;;;;;;5020909;28;20029;-51
2021/01/17 09:10:56;;;;;;;24.00;10.23;;;6.40;85.80;;;;;;5019190;28;20121;-51
2021/01/17 09:13:22;;;;;;;21.95;10.18;;;6.40;85.70;;;;;;5022406;28;20345;-51
2021/01/17 09:15:57;;;;;;;24.83;9.88;;;6.40;85.70;;;;;;5020859;28;20464;-51
2021/01/17 09:18:28;;;;;;;21.77;10.40;;;6.40;85.70;;;;;;5023051;28;20029;-51
2021/01/17 09:20:55;;;;;;;20.08;9.43;;;6.40;85.70;;;;;;5019325;28;20053;-51
2021/01/17 09:23:22;;;;;;;19.38;8.00;;;6.40;85.70;;;;;;5023639;28;20026;-51
2021/01/17 09:25:54;;;;;;;25.17;10.55;;;6.40;85.60;;;;;;5024066;28;20348;-51
2021/01/17 09:28:20;;;;;;;25.83;9.88;;;6.40;85.70;;;;;;5025937;28;20029;-51
2021/01/17 09:30:54;;;;;;;31.63;11.52;;;6.40;85.60;;;;;;5020892;28;20081;-51
2021/01/17 09:33:20;;;;;;;26.33;10.27;;;6.40;85.70;;;;;;5018061;28;20022;-51
2021/01/17 09:35:46;;;;;;;23.08;10.50;;;6.40;85.60;;;;;;5020983;28;20065;-51
2021/01/17 09:38:20;;;;;;;19.50;9.15;;;6.40;85.60;;;;;;5020807;28;20030;-51
2021/01/17 09:40:51;;;;;;;24.63;9.32;;;6.50;85.70;;;;;;5020486;28;20030;-51
2021/01/17 09:43:17;;;;;;;21.13;8.65;;;6.40;85.60;;;;;;5009578;28;20445;-51
2021/01/17 09:45:57;;;;;;;18.85;8.38;;;6.40;85.60;;;;;;5013320;28;20026;-51
2021/01/17 09:48:24;;;;;;;19.08;8.90;;;6.50;85.60;;;;;;5015008;28;20037;-51
2021/01/17 09:50:51;;;;;;;20.15;9.88;;;6.50;86.30;;;;;;5017520;28;20408;-51
2021/01/17 09:53:17;;;;;;;20.83;9.30;;;6.50;85.60;;;;;;5022124;28;20103;-51
2021/01/17 09:55:45;;;;;;;27.50;10.48;;;6.50;85.60;;;;;;5023508;28;20069;-51
2021/01/17 09:58:13;;;;;;;24.08;9.77;;;6.50;85.50;;;;;;5020483;28;20030;-51
2021/01/17 10:00:40;;;;;;;18.90;7.60;;;6.50;85.50;;;;;;5021100;28;20034;-51
2021/01/17 10:03:13;;;;;;;19.25;7.95;;;6.50;85.50;;;;;;5026590;28;20018;-51
2021/01/17 10:05:41;;;;;;;22.55;8.90;;;6.50;85.50;;;;;;5022696;28;20028;-51
2021/01/17 10:08:13;;;;;;;21.25;8.43;;;6.50;85.50;;;;;;5029677;28;20025;-51
2021/01/17 10:10:46;;;;;;;21.55;8.10;;;6.50;85.50;;;;;;5019228;28;20334;-51
2021/01/17 10:13:12;;;;;;;17.65;7.03;;;6.60;86.20;;;;;;5020770;28;20120;-51
2021/01/17 10:15:40;;;;;;;20.25;9.43;;;6.60;85.50;;;;;;5018655;28;20057;-51
2021/01/17 10:18:06;;;;;;;18.95;8.77;;;6.50;85.30;;;;;;5019110;28;20021;-51
2021/01/17 10:20:35;;;;;;;19.88;7.70;;;6.60;85.40;;;;;;5019229;28;20607;-51
2021/01/17 10:23:03;;;;;;;20.80;8.77;;;6.60;85.30;;;;;;5028014;28;20033;-51
2021/01/17 10:25:30;;;;;;;22.48;10.02;;;6.60;85.40;;;;;;5016723;28;20356;-51
2021/01/17 10:28:03;;;;;;;23.25;8.55;;;6.60;85.30;;;;;;5018270;28;20017;-51
2021/01/17 10:30:31;;;;;;;22.75;8.70;;;6.70;85.30;;;;;;5020431;28;20045;-51
2021/01/17 10:33:08;;;;;;;20.38;8.95;;;6.60;85.20;;;;;;5024340;28;20025;-51
2021/01/17 10:35:35;;;;;;;23.95;8.80;;;6.70;85.30;;;;;;5018348;28;20038;-51
2021/01/17 10:38:06;;;;;;;26.38;9.50;;;6.70;85.20;;;;;;5028534;28;20493;-51
2021/01/17 10:40:32;;;;;;;25.00;9.63;;;6.70;85.10;;;;;;5016583;28;20045;-51
2021/01/17 10:43:02;;;;;;;22.20;9.70;;;6.70;85.20;;;;;;5024136;28;20021;-51
2021/01/17 10:45:29;;;;;;;21.02;8.10;;;6.70;85.20;;;;;;5025005;28;20045;-51
2021/01/17 10:48:20;;;;;;;22.38;8.88;;;6.70;85.10;;;;;;5032203;28;20025;-51
2021/01/17 10:50:58;;;;;;;18.80;8.43;;;6.70;85.00;;;;;;5012143;28;20038;-51
2021/01/17 10:53:46;;;;;;;19.73;8.63;;;6.70;85.00;;;;;;5012444;28;20026;-51
2021/01/17 10:56:16;;;;;;;22.55;8.32;;;6.80;85.00;;;;;;5013237;28;20046;-51
2021/01/17 10:58:43;;;;;;;20.50;8.20;;;6.80;84.90;;;;;;5016008;28;20028;-51
2021/01/17 11:01:10;;;;;;;21.10;9.00;;;6.80;84.90;;;;;;5031263;28;20033;-51
2021/01/17 11:03:39;;;;;;;14.48;6.47;;;6.80;84.90;;;;;;5035690;28;20367;-51
2021/01/17 11:06:15;;;;;;;25.13;9.23;;;6.80;84.90;;;;;;5029689;28;20032;-51
2021/01/17 11:08:47;;;;;;;17.00;8.38;;;6.80;84.90;;;;;;5035718;28;20056;-52
2021/01/17 11:11:14;;;;;;;23.63;10.52;;;6.80;84.90;;;;;;5033510;28;20022;-51
2021/01/17 11:13:41;;;;;;;27.10;8.55;;;6.80;84.90;;;;;;5015707;28;20049;-51
2021/01/17 11:16:07;;;;;;;23.80;8.80;;;6.80;84.90;;;;;;5015468;28;20038;-51
2021/01/17 11:18:35;;;;;;;21.85;9.18;;;6.80;84.90;;;;;;5015329;28;20061;-51
2021/01/17 11:21:03;;;;;;;23.15;9.48;;;6.90;84.90;;;;;;5030585;28;20034;-51
2021/01/17 11:23:29;;;;;;;18.98;8.88;;;6.90;84.90;;;;;;5032155;28;20036;-51
2021/01/17 11:25:59;;;;;;;25.60;8.50;;;6.90;84.90;;;;;;5035391;28;20457;-51
2021/01/17 11:28:28;;;;;;;26.63;11.07;;;6.90;85.00;;;;;;5017004;28;20471;-51
2021/01/17 11:30:57;;;;;;;24.60;8.23;;;6.90;84.90;;;;;;5015193;28;20113;-51
2021/01/17 11:33:28;;;;;;;19.70;8.48;;;6.90;84.90;;;;;;5016054;28;20468;-51
2021/01/17 11:36:01;;;;;;;20.75;7.75;;;6.90;84.90;;;;;;5025682;28;20037;-51
2021/01/17 11:38:48;;;;;;;28.50;10.13;;;6.90;84.80;;;;;;5034996;28;20045;-51
2021/01/17 11:41:15;;;;;;;17.92;8.05;;;6.90;84.90;;;;;;5034872;28;20104;-51
2021/01/17 11:43:41;;;;;;;24.73;10.27;;;6.90;84.90;;;;;;5033927;28;20355;-51
2021/01/17 11:46:09;;;;;;;24.15;9.57;;;6.90;84.90;;;;;;5035040;28;20036;-51
2021/01/17 11:48:36;;;;;;;21.30;9.23;;;6.90;84.90;;;;;;5034556;28;20045;-51
2021/01/17 11:51:03;;;;;;;24.05;10.38;;;6.90;84.90;;;;;;5034651;28;20028;-51
2021/01/17 11:53:32;;;;;;;23.38;10.02;;;6.90;84.90;;;;;;5033147;28;20029;-51
2021/01/17 11:55:59;;;;;;;29.00;10.13;;;6.90;84.90;;;;;;5034670;28;20065;-51
2021/01/17 11:58:28;;;;;;;27.30;10.02;;;6.90;84.90;;;;;;5034135;28;20076;-52
2021/01/17 12:01:02;;;;;;;27.88;10.80;;;7.00;85.00;;;;;;5028172;28;20133;-51
2021/01/17 12:03:34;;;;;;;28.85;12.10;;;6.90;84.90;;;;;;5020086;28;20030;-51
2021/01/17 12:06:12;;;;;;;28.83;11.57;;;6.70;84.20;;;;;;5024627;28;20022;-53
2021/01/17 12:08:52;;;;;;;24.58;9.43;;;6.70;84.80;;;;;;5030208;28;20343;-53
2021/01/17 12:11:36;;;;;;;20.20;9.18;;;6.70;84.70;;;;;;5024871;28;20026;-53
2021/01/17 12:14:18;;;;;;;36.75;10.05;;;6.80;84.30;;;;;;5014789;28;20052;-53
2021/01/17 12:16:54;;;;;;;24.55;10.35;;;6.80;83.90;;;;;;5014339;28;20026;-53
2021/01/17 12:19:21;;;;;;;30.65;10.02;;;6.90;83.60;;;;;;5029842;28;20058;-53
2021/01/17 12:21:49;;;;;;;25.67;11.52;;;6.90;83.40;;;;;;5022193;28;20021;-53
2021/01/17 12:24:17;;;;;;;24.40;10.90;;;6.90;83.30;;;;;;5028955;28;20040;-53
2021/01/17 12:26:44;;;;;;;21.98;9.25;;;6.90;83.30;;;;;;5027788;28;20458;-53
2021/01/17 12:29:11;;;;;;;22.80;10.50;;;6.90;83.20;;;;;;5028144;28;20451;-53
2021/01/17 12:31:38;;;;;;;28.52;11.30;;;7.00;83.20;;;;;;5025280;28;20036;-53
2021/01/17 12:34:04;;;;;;;28.77;10.77;;;6.90;83.20;;;;;;5033538;28;20041;-53
2021/01/17 12:36:32;;;;;;;27.65;11.20;;;7.00;83.30;;;;;;5018631;28;20034;-53
2021/01/17 12:38:59;;;;;;;25.90;9.70;;;7.00;83.30;;;;;;5019781;28;20083;-53
2021/01/17 12:41:45;;;;;;;23.50;9.05;;;7.00;83.30;;;;;;5032289;28;20409;-53
2021/01/17 12:44:18;;;;;;;19.35;9.15;;;7.00;83.30;;;;;;5021176;28;20025;-53
2021/01/17 12:46:45;;;;;;;29.25;9.65;;;7.00;83.30;;;;;;5033556;28;20025;-53
2021/01/17 12:49:14;;;;;;;19.42;7.95;;;7.00;83.30;;;;;;5026339;28;20058;-53
2021/01/17 12:51:41;;;;;;;20.10;8.93;;;7.00;83.30;;;;;;5013865;28;20029;-53
2021/01/17 12:54:07;;;;;;;16.65;8.07;;;7.00;83.40;;;;;;5014820;28;20030;-53
2021/01/17 12:56:32;;;;;;;22.42;9.07;;;7.00;83.50;;;;;;5013722;28;20363;-53
2021/01/17 12:58:58;;;;;;;23.13;9.63;;;7.00;83.50;;;;;;5019848;28;20127;-53